sensor_id;sensor_type;location;lat;lon;timestamp;P1;durP1;ratioP1;P2;durP2;ratioP2
61907;SDS011;47864;52.526;19.672;2024-03-08T00:01:22;80.20;;;42.63;;
61907;SDS011;47864;52.526;19.672;2024-03-08T00:03:23;83.22;;;44.35;;
61907;SDS011;47864;52.526;19.672;2024-03-08T00:05:25;78.53;;;41.25;;
61907;SDS011;47864;52.526;19.672;2024-03-08T00:07:26;85.68;;;42.38;;
61907;SDS011;47864;52.526;19.672;2024-03-08T00:09:28;82.25;;;42.30;;
61907;SDS011;47864;52.526;19.672;2024-03-08T00:11:29;77.57;;;42.67;;
61907;SDS011;47864;52.526;19.672;2024-03-08T00:13:31;76.55;;;40.75;;
61907;SDS011;47864;52.526;19.672;2024-03-08T00:15:33;69.28;;;36.88;;
61907;SDS011;47864;52.526;19.672;2024-03-08T00:17:34;71.38;;;37.60;;
61907;SDS011;47864;52.526;19.672;2024-03-08T00:19:36;75.88;;;38.85;;
61907;SDS011;47864;52.526;19.672;2024-03-08T00:21:38;71.85;;;39.60;;
61907;SDS011;47864;52.526;19.672;2024-03-08T00:23:39;73.28;;;40.25;;
61907;SDS011;47864;52.526;19.672;2024-03-08T00:25:41;78.38;;;39.65;;
61907;SDS011;47864;52.526;19.672;2024-03-08T00:27:42;78.07;;;40.95;;
61907;SDS011;47864;52.526;19.672;2024-03-08T00:29:44;74.55;;;40.63;;
61907;SDS011;47864;52.526;19.672;2024-03-08T00:31:46;74.88;;;40.28;;
61907;SDS011;47864;52.526;19.672;2024-03-08T00:33:47;65.95;;;38.00;;
61907;SDS011;47864;52.526;19.672;2024-03-08T00:35:49;72.63;;;40.03;;
61907;SDS011;47864;52.526;19.672;2024-03-08T00:37:50;68.75;;;35.60;;
61907;SDS011;47864;52.526;19.672;2024-03-08T00:39:52;68.63;;;37.92;;
61907;SDS011;47864;52.526;19.672;2024-03-08T00:41:54;71.63;;;37.40;;
61907;SDS011;47864;52.526;19.672;2024-03-08T00:43:55;73.22;;;37.25;;
61907;SDS011;47864;52.526;19.672;2024-03-08T00:45:57;75.68;;;39.10;;
61907;SDS011;47864;52.526;19.672;2024-03-08T00:47:58;72.60;;;37.30;;
61907;SDS011;47864;52.526;19.672;2024-03-08T00:50:00;75.70;;;37.35;;
61907;SDS011;47864;52.526;19.672;2024-03-08T00:52:02;70.90;;;37.25;;
61907;SDS011;47864;52.526;19.672;2024-03-08T00:54:04;76.32;;;38.28;;
61907;SDS011;47864;52.526;19.672;2024-03-08T00:56:05;75.82;;;39.08;;
61907;SDS011;47864;52.526;19.672;2024-03-08T00:58:07;73.50;;;37.55;;
61907;SDS011;47864;52.526;19.672;2024-03-08T01:00:09;72.47;;;37.25;;
61907;SDS011;47864;52.526;19.672;2024-03-08T01:02:11;68.40;;;36.47;;
61907;SDS011;47864;52.526;19.672;2024-03-08T01:04:12;73.13;;;38.30;;
61907;SDS011;47864;52.526;19.672;2024-03-08T01:06:14;71.93;;;37.70;;
61907;SDS011;47864;52.526;19.672;2024-03-08T01:08:16;74.28;;;37.78;;
61907;SDS011;47864;52.526;19.672;2024-03-08T01:10:17;73.57;;;38.00;;
61907;SDS011;47864;52.526;19.672;2024-03-08T01:12:19;74.05;;;38.25;;
61907;SDS011;47864;52.526;19.672;2024-03-08T01:14:21;72.13;;;38.22;;
61907;SDS011;47864;52.526;19.672;2024-03-08T01:16:23;75.05;;;39.75;;
61907;SDS011;47864;52.526;19.672;2024-03-08T01:18:24;73.97;;;38.85;;
61907;SDS011;47864;52.526;19.672;2024-03-08T01:20:26;69.05;;;39.40;;
61907;SDS011;47864;52.526;19.672;2024-03-08T01:22:27;68.70;;;37.50;;
61907;SDS011;47864;52.526;19.672;2024-03-08T01:24:29;72.72;;;37.60;;
61907;SDS011;47864;52.526;19.672;2024-03-08T01:26:30;77.05;;;39.40;;
61907;SDS011;47864;52.526;19.672;2024-03-08T01:28:32;79.35;;;41.75;;
61907;SDS011;47864;52.526;19.672;2024-03-08T01:30:34;70.30;;;39.47;;
61907;SDS011;47864;52.526;19.672;2024-03-08T01:32:35;70.45;;;40.58;;
61907;SDS011;47864;52.526;19.672;2024-03-08T01:34:37;78.00;;;42.88;;
61907;SDS011;47864;52.526;19.672;2024-03-08T01:36:38;76.10;;;39.95;;
61907;SDS011;47864;52.526;19.672;2024-03-08T01:38:40;75.07;;;41.40;;
61907;SDS011;47864;52.526;19.672;2024-03-08T01:40:43;76.50;;;40.70;;
61907;SDS011;47864;52.526;19.672;2024-03-08T01:42:45;76.15;;;39.83;;
61907;SDS011;47864;52.526;19.672;2024-03-08T01:44:46;77.53;;;41.10;;
61907;SDS011;47864;52.526;19.672;2024-03-08T01:46:48;72.85;;;41.70;;
61907;SDS011;47864;52.526;19.672;2024-03-08T01:48:51;75.40;;;39.75;;
61907;SDS011;47864;52.526;19.672;2024-03-08T01:50:53;68.20;;;37.13;;
61907;SDS011;47864;52.526;19.672;2024-03-08T01:52:55;78.28;;;41.08;;
61907;SDS011;47864;52.526;19.672;2024-03-08T01:54:58;71.97;;;39.35;;
61907;SDS011;47864;52.526;19.672;2024-03-08T01:57:01;75.30;;;38.47;;
61907;SDS011;47864;52.526;19.672;2024-03-08T01:59:03;72.13;;;38.40;;
61907;SDS011;47864;52.526;19.672;2024-03-08T02:01:05;72.97;;;35.85;;
61907;SDS011;47864;52.526;19.672;2024-03-08T02:03:06;74.00;;;38.35;;
61907;SDS011;47864;52.526;19.672;2024-03-08T02:05:09;69.95;;;37.63;;
61907;SDS011;47864;52.526;19.672;2024-03-08T02:07:10;80.18;;;38.78;;
61907;SDS011;47864;52.526;19.672;2024-03-08T02:09:12;74.68;;;40.17;;
61907;SDS011;47864;52.526;19.672;2024-03-08T02:11:14;71.70;;;38.33;;
61907;SDS011;47864;52.526;19.672;2024-03-08T02:13:16;70.78;;;37.10;;
61907;SDS011;47864;52.526;19.672;2024-03-08T02:15:17;77.97;;;40.80;;
61907;SDS011;47864;52.526;19.672;2024-03-08T02:17:19;75.47;;;40.33;;
61907;SDS011;47864;52.526;19.672;2024-03-08T02:19:21;80.50;;;39.28;;
61907;SDS011;47864;52.526;19.672;2024-03-08T02:21:22;81.00;;;40.75;;
61907;SDS011;47864;52.526;19.672;2024-03-08T02:23:24;82.82;;;41.08;;
61907;SDS011;47864;52.526;19.672;2024-03-08T02:25:27;79.40;;;40.97;;
61907;SDS011;47864;52.526;19.672;2024-03-08T02:27:29;79.47;;;41.45;;
61907;SDS011;47864;52.526;19.672;2024-03-08T02:29:30;79.68;;;43.97;;
61907;SDS011;47864;52.526;19.672;2024-03-08T02:31:33;80.53;;;42.63;;
61907;SDS011;47864;52.526;19.672;2024-03-08T02:33:35;80.07;;;41.50;;
61907;SDS011;47864;52.526;19.672;2024-03-08T02:35:37;77.22;;;41.75;;
61907;SDS011;47864;52.526;19.672;2024-03-08T02:37:38;73.95;;;41.72;;
61907;SDS011;47864;52.526;19.672;2024-03-08T02:39:40;71.30;;;40.33;;
61907;SDS011;47864;52.526;19.672;2024-03-08T02:41:41;79.38;;;42.40;;
61907;SDS011;47864;52.526;19.672;2024-03-08T02:43:43;73.25;;;39.72;;
61907;SDS011;47864;52.526;19.672;2024-03-08T02:45:44;81.95;;;41.85;;
61907;SDS011;47864;52.526;19.672;2024-03-08T02:47:47;84.78;;;44.10;;
61907;SDS011;47864;52.526;19.672;2024-03-08T02:49:48;92.03;;;47.63;;
61907;SDS011;47864;52.526;19.672;2024-03-08T02:51:50;100.30;;;50.70;;
61907;SDS011;47864;52.526;19.672;2024-03-08T02:53:52;108.32;;;51.40;;
61907;SDS011;47864;52.526;19.672;2024-03-08T02:55:53;121.50;;;52.88;;
61907;SDS011;47864;52.526;19.672;2024-03-08T02:57:55;177.63;;;57.42;;
61907;SDS011;47864;52.526;19.672;2024-03-08T02:59:57;212.05;;;58.97;;
61907;SDS011;47864;52.526;19.672;2024-03-08T03:01:59;168.55;;;55.95;;
61907;SDS011;47864;52.526;19.672;2024-03-08T03:04:00;161.77;;;57.78;;
61907;SDS011;47864;52.526;19.672;2024-03-08T03:06:02;208.98;;;62.22;;
61907;SDS011;47864;52.526;19.672;2024-03-08T03:08:03;159.10;;;61.40;;
61907;SDS011;47864;52.526;19.672;2024-03-08T03:10:05;164.48;;;63.55;;
61907;SDS011;47864;52.526;19.672;2024-03-08T03:12:07;156.13;;;61.38;;
61907;SDS011;47864;52.526;19.672;2024-03-08T03:14:09;166.27;;;64.47;;
61907;SDS011;47864;52.526;19.672;2024-03-08T03:16:11;156.85;;;60.70;;
61907;SDS011;47864;52.526;19.672;2024-03-08T03:18:12;196.32;;;66.88;;
61907;SDS011;47864;52.526;19.672;2024-03-08T03:20:14;160.40;;;63.05;;
61907;SDS011;47864;52.526;19.672;2024-03-08T03:22:16;139.05;;;59.42;;
61907;SDS011;47864;52.526;19.672;2024-03-08T03:24:17;139.52;;;59.63;;
61907;SDS011;47864;52.526;19.672;2024-03-08T03:26:19;149.65;;;62.80;;
61907;SDS011;47864;52.526;19.672;2024-03-08T03:28:20;132.70;;;60.13;;
61907;SDS011;47864;52.526;19.672;2024-03-08T03:30:23;139.25;;;57.20;;
61907;SDS011;47864;52.526;19.672;2024-03-08T03:32:25;138.95;;;60.25;;
61907;SDS011;47864;52.526;19.672;2024-03-08T03:34:26;131.00;;;59.25;;
61907;SDS011;47864;52.526;19.672;2024-03-08T03:36:28;153.88;;;62.00;;
61907;SDS011;47864;52.526;19.672;2024-03-08T03:38:30;176.50;;;61.58;;
61907;SDS011;47864;52.526;19.672;2024-03-08T03:40:32;196.15;;;62.28;;
61907;SDS011;47864;52.526;19.672;2024-03-08T03:42:35;325.43;;;65.90;;
61907;SDS011;47864;52.526;19.672;2024-03-08T03:44:36;265.73;;;64.88;;
61907;SDS011;47864;52.526;19.672;2024-03-08T03:46:41;180.70;;;61.13;;
61907;SDS011;47864;52.526;19.672;2024-03-08T03:48:43;191.85;;;63.72;;
61907;SDS011;47864;52.526;19.672;2024-03-08T03:50:44;222.50;;;66.43;;
61907;SDS011;47864;52.526;19.672;2024-03-08T03:52:46;264.23;;;71.50;;
61907;SDS011;47864;52.526;19.672;2024-03-08T03:54:48;254.90;;;69.15;;
61907;SDS011;47864;52.526;19.672;2024-03-08T03:56:50;359.35;;;71.97;;
61907;SDS011;47864;52.526;19.672;2024-03-08T03:58:51;279.67;;;67.22;;
61907;SDS011;47864;52.526;19.672;2024-03-08T04:00:53;261.90;;;67.55;;
61907;SDS011;47864;52.526;19.672;2024-03-08T04:02:55;250.32;;;71.97;;
61907;SDS011;47864;52.526;19.672;2024-03-08T04:04:56;366.90;;;74.47;;
61907;SDS011;47864;52.526;19.672;2024-03-08T04:06:58;230.60;;;68.50;;
61907;SDS011;47864;52.526;19.672;2024-03-08T04:09:00;247.82;;;75.35;;
61907;SDS011;47864;52.526;19.672;2024-03-08T04:11:01;219.38;;;62.55;;
61907;SDS011;47864;52.526;19.672;2024-03-08T04:13:03;210.48;;;60.45;;
61907;SDS011;47864;52.526;19.672;2024-03-08T04:15:05;203.45;;;59.30;;
61907;SDS011;47864;52.526;19.672;2024-03-08T04:17:06;426.00;;;67.72;;
61907;SDS011;47864;52.526;19.672;2024-03-08T04:19:08;224.85;;;60.47;;
61907;SDS011;47864;52.526;19.672;2024-03-08T04:21:10;278.33;;;67.32;;
61907;SDS011;47864;52.526;19.672;2024-03-08T04:23:11;204.80;;;58.70;;
61907;SDS011;47864;52.526;19.672;2024-03-08T04:25:13;208.38;;;61.30;;
61907;SDS011;47864;52.526;19.672;2024-03-08T04:27:15;222.88;;;63.15;;
61907;SDS011;47864;52.526;19.672;2024-03-08T04:29:16;229.00;;;63.38;;
61907;SDS011;47864;52.526;19.672;2024-03-08T04:31:18;174.77;;;59.35;;
61907;SDS011;47864;52.526;19.672;2024-03-08T04:33:19;169.82;;;61.83;;
61907;SDS011;47864;52.526;19.672;2024-03-08T04:35:21;191.63;;;70.15;;
61907;SDS011;47864;52.526;19.672;2024-03-08T04:37:22;181.30;;;70.70;;
61907;SDS011;47864;52.526;19.672;2024-03-08T04:39:24;232.93;;;80.20;;
61907;SDS011;47864;52.526;19.672;2024-03-08T04:41:26;235.63;;;87.20;;
61907;SDS011;47864;52.526;19.672;2024-03-08T04:43:27;211.30;;;74.35;;
61907;SDS011;47864;52.526;19.672;2024-03-08T04:45:29;290.95;;;74.78;;
61907;SDS011;47864;52.526;19.672;2024-03-08T04:47:30;244.73;;;78.43;;
61907;SDS011;47864;52.526;19.672;2024-03-08T04:49:32;246.95;;;81.03;;
61907;SDS011;47864;52.526;19.672;2024-03-08T04:51:34;309.25;;;90.47;;
61907;SDS011;47864;52.526;19.672;2024-03-08T04:53:36;348.17;;;90.95;;
61907;SDS011;47864;52.526;19.672;2024-03-08T04:55:37;373.92;;;110.05;;
61907;SDS011;47864;52.526;19.672;2024-03-08T04:57:39;305.90;;;127.10;;
61907;SDS011;47864;52.526;19.672;2024-03-08T04:59:40;307.23;;;110.47;;
61907;SDS011;47864;52.526;19.672;2024-03-08T05:01:42;380.05;;;114.95;;
61907;SDS011;47864;52.526;19.672;2024-03-08T05:03:43;303.80;;;94.05;;
61907;SDS011;47864;52.526;19.672;2024-03-08T05:05:45;348.23;;;103.70;;
61907;SDS011;47864;52.526;19.672;2024-03-08T05:07:46;339.02;;;108.85;;
61907;SDS011;47864;52.526;19.672;2024-03-08T05:09:48;422.67;;;157.20;;
61907;SDS011;47864;52.526;19.672;2024-03-08T05:11:49;466.38;;;168.60;;
61907;SDS011;47864;52.526;19.672;2024-03-08T05:13:51;374.25;;;153.27;;
61907;SDS011;47864;52.526;19.672;2024-03-08T05:15:52;320.55;;;105.15;;
61907;SDS011;47864;52.526;19.672;2024-03-08T05:17:54;261.65;;;79.03;;
61907;SDS011;47864;52.526;19.672;2024-03-08T05:19:56;246.55;;;72.85;;
61907;SDS011;47864;52.526;19.672;2024-03-08T05:21:57;235.40;;;70.32;;
61907;SDS011;47864;52.526;19.672;2024-03-08T05:23:59;236.40;;;71.15;;
61907;SDS011;47864;52.526;19.672;2024-03-08T05:26:00;226.35;;;69.95;;
61907;SDS011;47864;52.526;19.672;2024-03-08T05:28:02;220.40;;;68.30;;
61907;SDS011;47864;52.526;19.672;2024-03-08T05:30:04;258.50;;;72.03;;
61907;SDS011;47864;52.526;19.672;2024-03-08T05:32:06;262.27;;;72.97;;
61907;SDS011;47864;52.526;19.672;2024-03-08T05:34:08;224.20;;;68.68;;
61907;SDS011;47864;52.526;19.672;2024-03-08T05:36:09;295.60;;;75.32;;
61907;SDS011;47864;52.526;19.672;2024-03-08T05:38:11;325.17;;;76.80;;
61907;SDS011;47864;52.526;19.672;2024-03-08T05:40:12;270.45;;;77.45;;
61907;SDS011;47864;52.526;19.672;2024-03-08T05:42:18;228.50;;;72.95;;
61907;SDS011;47864;52.526;19.672;2024-03-08T05:44:20;227.82;;;76.65;;
61907;SDS011;47864;52.526;19.672;2024-03-08T05:46:22;265.27;;;91.55;;
61907;SDS011;47864;52.526;19.672;2024-03-08T05:48:23;323.48;;;90.13;;
61907;SDS011;47864;52.526;19.672;2024-03-08T05:50:25;234.07;;;81.28;;
61907;SDS011;47864;52.526;19.672;2024-03-08T05:52:27;266.80;;;88.55;;
61907;SDS011;47864;52.526;19.672;2024-03-08T05:54:28;205.90;;;78.75;;
61907;SDS011;47864;52.526;19.672;2024-03-08T05:56:30;212.90;;;80.05;;
61907;SDS011;47864;52.526;19.672;2024-03-08T05:58:32;232.00;;;87.78;;
61907;SDS011;47864;52.526;19.672;2024-03-08T06:00:34;211.35;;;80.07;;
61907;SDS011;47864;52.526;19.672;2024-03-08T06:02:35;216.20;;;76.00;;
61907;SDS011;47864;52.526;19.672;2024-03-08T06:04:37;247.40;;;75.88;;
61907;SDS011;47864;52.526;19.672;2024-03-08T06:06:39;241.27;;;73.82;;
61907;SDS011;47864;52.526;19.672;2024-03-08T06:08:42;213.80;;;72.57;;
61907;SDS011;47864;52.526;19.672;2024-03-08T06:10:44;233.80;;;79.07;;
61907;SDS011;47864;52.526;19.672;2024-03-08T06:12:45;191.35;;;72.20;;
61907;SDS011;47864;52.526;19.672;2024-03-08T06:14:47;196.15;;;72.63;;
61907;SDS011;47864;52.526;19.672;2024-03-08T06:16:48;173.90;;;73.72;;
61907;SDS011;47864;52.526;19.672;2024-03-08T06:18:50;163.70;;;65.65;;
61907;SDS011;47864;52.526;19.672;2024-03-08T06:20:52;167.07;;;65.15;;
61907;SDS011;47864;52.526;19.672;2024-03-08T06:22:56;168.65;;;68.25;;
61907;SDS011;47864;52.526;19.672;2024-03-08T06:24:58;160.55;;;70.03;;
61907;SDS011;47864;52.526;19.672;2024-03-08T06:26:59;196.40;;;75.28;;
61907;SDS011;47864;52.526;19.672;2024-03-08T06:29:04;198.65;;;75.97;;
61907;SDS011;47864;52.526;19.672;2024-03-08T06:31:05;152.65;;;70.57;;
61907;SDS011;47864;52.526;19.672;2024-03-08T06:33:06;142.40;;;62.60;;
61907;SDS011;47864;52.526;19.672;2024-03-08T06:35:08;182.20;;;63.67;;
61907;SDS011;47864;52.526;19.672;2024-03-08T06:37:10;133.93;;;62.30;;
61907;SDS011;47864;52.526;19.672;2024-03-08T06:39:12;126.75;;;63.70;;
61907;SDS011;47864;52.526;19.672;2024-03-08T06:41:14;126.03;;;66.68;;
61907;SDS011;47864;52.526;19.672;2024-03-08T06:43:15;121.05;;;64.40;;
61907;SDS011;47864;52.526;19.672;2024-03-08T06:45:17;120.55;;;64.35;;
61907;SDS011;47864;52.526;19.672;2024-03-08T06:47:18;119.35;;;65.53;;
61907;SDS011;47864;52.526;19.672;2024-03-08T06:49:20;114.80;;;64.40;;
61907;SDS011;47864;52.526;19.672;2024-03-08T06:51:22;111.63;;;63.22;;
61907;SDS011;47864;52.526;19.672;2024-03-08T06:53:23;99.68;;;58.40;;
61907;SDS011;47864;52.526;19.672;2024-03-08T06:55:28;113.05;;;64.47;;
61907;SDS011;47864;52.526;19.672;2024-03-08T06:57:30;115.85;;;65.95;;
61907;SDS011;47864;52.526;19.672;2024-03-08T06:59:32;110.18;;;65.07;;
61907;SDS011;47864;52.526;19.672;2024-03-08T07:01:34;98.30;;;58.95;;
61907;SDS011;47864;52.526;19.672;2024-03-08T07:03:35;91.55;;;54.10;;
61907;SDS011;47864;52.526;19.672;2024-03-08T07:05:40;92.55;;;50.75;;
61907;SDS011;47864;52.526;19.672;2024-03-08T07:07:42;77.13;;;46.13;;
61907;SDS011;47864;52.526;19.672;2024-03-08T07:09:44;76.30;;;43.72;;
61907;SDS011;47864;52.526;19.672;2024-03-08T07:11:46;82.07;;;44.35;;
61907;SDS011;47864;52.526;19.672;2024-03-08T07:13:48;75.53;;;43.58;;
61907;SDS011;47864;52.526;19.672;2024-03-08T07:15:50;81.60;;;44.60;;
61907;SDS011;47864;52.526;19.672;2024-03-08T07:17:51;75.60;;;45.35;;
61907;SDS011;47864;52.526;19.672;2024-03-08T07:19:53;84.00;;;44.33;;
61907;SDS011;47864;52.526;19.672;2024-03-08T07:21:54;76.90;;;43.63;;
61907;SDS011;47864;52.526;19.672;2024-03-08T07:23:56;70.25;;;42.65;;
61907;SDS011;47864;52.526;19.672;2024-03-08T07:25:58;74.55;;;41.00;;
61907;SDS011;47864;52.526;19.672;2024-03-08T07:27:59;76.95;;;42.13;;
61907;SDS011;47864;52.526;19.672;2024-03-08T07:30:01;71.15;;;42.00;;
61907;SDS011;47864;52.526;19.672;2024-03-08T07:32:06;69.68;;;41.83;;
61907;SDS011;47864;52.526;19.672;2024-03-08T07:34:07;71.75;;;42.88;;
61907;SDS011;47864;52.526;19.672;2024-03-08T07:36:09;75.45;;;41.70;;
61907;SDS011;47864;52.526;19.672;2024-03-08T07:38:11;78.97;;;43.75;;
61907;SDS011;47864;52.526;19.672;2024-03-08T07:40:12;77.72;;;43.47;;
61907;SDS011;47864;52.526;19.672;2024-03-08T07:42:14;76.03;;;41.95;;
61907;SDS011;47864;52.526;19.672;2024-03-08T07:44:15;75.80;;;41.58;;
61907;SDS011;47864;52.526;19.672;2024-03-08T07:46:20;79.55;;;41.55;;
61907;SDS011;47864;52.526;19.672;2024-03-08T07:48:22;76.22;;;38.63;;
61907;SDS011;47864;52.526;19.672;2024-03-08T07:50:23;69.18;;;35.95;;
61907;SDS011;47864;52.526;19.672;2024-03-08T07:52:28;70.95;;;37.67;;
61907;SDS011;47864;52.526;19.672;2024-03-08T07:54:30;63.15;;;34.88;;
61907;SDS011;47864;52.526;19.672;2024-03-08T07:56:32;65.50;;;35.95;;
61907;SDS011;47864;52.526;19.672;2024-03-08T07:58:35;66.43;;;35.30;;
61907;SDS011;47864;52.526;19.672;2024-03-08T08:00:37;70.68;;;36.10;;
61907;SDS011;47864;52.526;19.672;2024-03-08T08:02:38;68.05;;;37.22;;
61907;SDS011;47864;52.526;19.672;2024-03-08T08:04:41;74.68;;;37.17;;
61907;SDS011;47864;52.526;19.672;2024-03-08T08:06:42;74.38;;;36.92;;
61907;SDS011;47864;52.526;19.672;2024-03-08T08:08:44;77.88;;;38.83;;
61907;SDS011;47864;52.526;19.672;2024-03-08T08:10:46;74.78;;;38.05;;
61907;SDS011;47864;52.526;19.672;2024-03-08T08:12:48;74.88;;;40.00;;
61907;SDS011;47864;52.526;19.672;2024-03-08T08:14:50;76.20;;;39.90;;
61907;SDS011;47864;52.526;19.672;2024-03-08T08:16:54;85.38;;;40.58;;
61907;SDS011;47864;52.526;19.672;2024-03-08T08:18:56;92.32;;;41.58;;
61907;SDS011;47864;52.526;19.672;2024-03-08T08:20:58;96.18;;;43.22;;
61907;SDS011;47864;52.526;19.672;2024-03-08T08:23:00;96.55;;;42.65;;
61907;SDS011;47864;52.526;19.672;2024-03-08T08:25:07;105.53;;;43.08;;
61907;SDS011;47864;52.526;19.672;2024-03-08T08:27:09;94.75;;;43.38;;
61907;SDS011;47864;52.526;19.672;2024-03-08T08:29:14;86.50;;;39.83;;
61907;SDS011;47864;52.526;19.672;2024-03-08T08:31:23;81.35;;;38.30;;
61907;SDS011;47864;52.526;19.672;2024-03-08T08:33:28;69.70;;;35.45;;
61907;SDS011;47864;52.526;19.672;2024-03-08T08:35:32;70.25;;;36.13;;
61907;SDS011;47864;52.526;19.672;2024-03-08T08:37:34;61.70;;;31.73;;
61907;SDS011;47864;52.526;19.672;2024-03-08T08:39:35;57.65;;;31.33;;
61907;SDS011;47864;52.526;19.672;2024-03-08T08:41:37;53.45;;;29.55;;
61907;SDS011;47864;52.526;19.672;2024-03-08T08:43:39;53.05;;;28.10;;
61907;SDS011;47864;52.526;19.672;2024-03-08T08:45:50;56.38;;;30.02;;
61907;SDS011;47864;52.526;19.672;2024-03-08T08:47:52;62.10;;;32.17;;
61907;SDS011;47864;52.526;19.672;2024-03-08T08:49:54;60.83;;;32.45;;
61907;SDS011;47864;52.526;19.672;2024-03-08T08:51:55;60.28;;;31.42;;
61907;SDS011;47864;52.526;19.672;2024-03-08T08:54:03;56.13;;;32.20;;
61907;SDS011;47864;52.526;19.672;2024-03-08T08:56:05;59.25;;;31.25;;
61907;SDS011;47864;52.526;19.672;2024-03-08T08:58:07;54.55;;;30.70;;
61907;SDS011;47864;52.526;19.672;2024-03-08T09:00:09;51.03;;;27.42;;
61907;SDS011;47864;52.526;19.672;2024-03-08T09:02:10;51.58;;;27.65;;
61907;SDS011;47864;52.526;19.672;2024-03-08T09:04:17;46.15;;;25.88;;
61907;SDS011;47864;52.526;19.672;2024-03-08T09:06:21;27.67;;;15.35;;
61907;SDS011;47864;52.526;19.672;2024-03-08T09:08:23;35.30;;;18.15;;
61907;SDS011;47864;52.526;19.672;2024-03-08T09:10:24;33.75;;;20.20;;
61907;SDS011;47864;52.526;19.672;2024-03-08T09:12:29;35.08;;;18.00;;
61907;SDS011;47864;52.526;19.672;2024-03-08T09:14:30;27.05;;;15.60;;
61907;SDS011;47864;52.526;19.672;2024-03-08T09:16:32;26.13;;;14.63;;
61907;SDS011;47864;52.526;19.672;2024-03-08T09:18:33;28.73;;;16.17;;
61907;SDS011;47864;52.526;19.672;2024-03-08T09:20:35;27.30;;;15.02;;
61907;SDS011;47864;52.526;19.672;2024-03-08T09:22:36;31.63;;;17.45;;
61907;SDS011;47864;52.526;19.672;2024-03-08T09:24:38;30.10;;;17.10;;
61907;SDS011;47864;52.526;19.672;2024-03-08T09:26:40;32.97;;;16.80;;
61907;SDS011;47864;52.526;19.672;2024-03-08T09:28:41;31.75;;;17.52;;
61907;SDS011;47864;52.526;19.672;2024-03-08T09:30:43;32.00;;;16.67;;
61907;SDS011;47864;52.526;19.672;2024-03-08T09:32:57;30.27;;;15.77;;
61907;SDS011;47864;52.526;19.672;2024-03-08T09:34:59;28.20;;;15.85;;
61907;SDS011;47864;52.526;19.672;2024-03-08T09:37:01;55.38;;;28.35;;
61907;SDS011;47864;52.526;19.672;2024-03-08T09:39:03;30.55;;;16.75;;
61907;SDS011;47864;52.526;19.672;2024-03-08T09:41:04;27.83;;;14.40;;
61907;SDS011;47864;52.526;19.672;2024-03-08T09:43:06;25.45;;;14.90;;
61907;SDS011;47864;52.526;19.672;2024-03-08T09:45:09;26.35;;;15.30;;
61907;SDS011;47864;52.526;19.672;2024-03-08T09:47:13;25.63;;;14.32;;
61907;SDS011;47864;52.526;19.672;2024-03-08T09:49:15;29.65;;;15.98;;
61907;SDS011;47864;52.526;19.672;2024-03-08T09:51:17;27.52;;;16.90;;
61907;SDS011;47864;52.526;19.672;2024-03-08T09:53:19;41.00;;;19.75;;
61907;SDS011;47864;52.526;19.672;2024-03-08T09:55:20;28.63;;;17.00;;
61907;SDS011;47864;52.526;19.672;2024-03-08T09:57:22;29.15;;;18.33;;
61907;SDS011;47864;52.526;19.672;2024-03-08T09:59:24;35.42;;;18.90;;
61907;SDS011;47864;52.526;19.672;2024-03-08T10:01:26;30.08;;;16.73;;
61907;SDS011;47864;52.526;19.672;2024-03-08T10:03:28;34.25;;;18.98;;
61907;SDS011;47864;52.526;19.672;2024-03-08T10:05:30;32.40;;;18.00;;
61907;SDS011;47864;52.526;19.672;2024-03-08T10:07:32;33.33;;;18.75;;
61907;SDS011;47864;52.526;19.672;2024-03-08T10:09:34;38.03;;;19.52;;
61907;SDS011;47864;52.526;19.672;2024-03-08T10:11:36;52.53;;;23.75;;
61907;SDS011;47864;52.526;19.672;2024-03-08T10:13:37;34.00;;;18.63;;
61907;SDS011;47864;52.526;19.672;2024-03-08T10:15:40;31.02;;;16.70;;
61907;SDS011;47864;52.526;19.672;2024-03-08T10:17:41;33.90;;;16.98;;
61907;SDS011;47864;52.526;19.672;2024-03-08T10:19:49;31.88;;;18.23;;
61907;SDS011;47864;52.526;19.672;2024-03-08T10:21:51;63.28;;;32.00;;
61907;SDS011;47864;52.526;19.672;2024-03-08T10:23:53;32.55;;;19.20;;
61907;SDS011;47864;52.526;19.672;2024-03-08T10:25:54;27.10;;;16.15;;
61907;SDS011;47864;52.526;19.672;2024-03-08T10:27:56;55.00;;;22.20;;
61907;SDS011;47864;52.526;19.672;2024-03-08T10:29:58;33.13;;;18.48;;
61907;SDS011;47864;52.526;19.672;2024-03-08T10:32:03;29.05;;;16.30;;
61907;SDS011;47864;52.526;19.672;2024-03-08T10:34:04;27.30;;;15.80;;
61907;SDS011;47864;52.526;19.672;2024-03-08T10:36:09;29.92;;;15.95;;
61907;SDS011;47864;52.526;19.672;2024-03-08T10:38:11;26.27;;;15.32;;
61907;SDS011;47864;52.526;19.672;2024-03-08T10:40:17;25.58;;;15.32;;
61907;SDS011;47864;52.526;19.672;2024-03-08T10:42:19;27.63;;;16.37;;
61907;SDS011;47864;52.526;19.672;2024-03-08T10:46:33;27.38;;;16.10;;
61907;SDS011;47864;52.526;19.672;2024-03-08T10:48:40;27.30;;;16.05;;
61907;SDS011;47864;52.526;19.672;2024-03-08T10:50:45;26.95;;;15.32;;
61907;SDS011;47864;52.526;19.672;2024-03-08T10:52:49;26.30;;;14.85;;
61907;SDS011;47864;52.526;19.672;2024-03-08T10:54:52;29.30;;;15.95;;
61907;SDS011;47864;52.526;19.672;2024-03-08T10:56:55;31.58;;;16.00;;
61907;SDS011;47864;52.526;19.672;2024-03-08T10:58:57;32.63;;;17.85;;
61907;SDS011;47864;52.526;19.672;2024-03-08T11:00:59;25.25;;;15.23;;
61907;SDS011;47864;52.526;19.672;2024-03-08T11:03:01;28.98;;;15.30;;
61907;SDS011;47864;52.526;19.672;2024-03-08T11:05:03;23.13;;;14.07;;
61907;SDS011;47864;52.526;19.672;2024-03-08T11:07:05;24.23;;;14.27;;
61907;SDS011;47864;52.526;19.672;2024-03-08T11:09:40;24.77;;;15.27;;
61907;SDS011;47864;52.526;19.672;2024-03-08T11:11:38;29.63;;;16.27;;
61907;SDS011;47864;52.526;19.672;2024-03-08T11:13:40;26.38;;;15.18;;
61907;SDS011;47864;52.526;19.672;2024-03-08T11:15:43;25.58;;;14.13;;
61907;SDS011;47864;52.526;19.672;2024-03-08T11:17:45;24.55;;;13.85;;
61907;SDS011;47864;52.526;19.672;2024-03-08T11:22:00;26.75;;;14.60;;
61907;SDS011;47864;52.526;19.672;2024-03-08T11:24:06;22.60;;;14.13;;
61907;SDS011;47864;52.526;19.672;2024-03-08T11:26:19;27.67;;;14.50;;
61907;SDS011;47864;52.526;19.672;2024-03-08T11:28:23;21.92;;;13.35;;
61907;SDS011;47864;52.526;19.672;2024-03-08T11:30:25;21.10;;;13.27;;
61907;SDS011;47864;52.526;19.672;2024-03-08T11:32:27;24.40;;;14.18;;
61907;SDS011;47864;52.526;19.672;2024-03-08T11:36:33;26.55;;;13.30;;
61907;SDS011;47864;52.526;19.672;2024-03-08T11:38:39;21.33;;;11.47;;
61907;SDS011;47864;52.526;19.672;2024-03-08T11:40:41;21.20;;;11.23;;
61907;SDS011;47864;52.526;19.672;2024-03-08T11:42:44;23.85;;;13.15;;
61907;SDS011;47864;52.526;19.672;2024-03-08T11:44:46;19.77;;;10.95;;
61907;SDS011;47864;52.526;19.672;2024-03-08T11:46:48;19.67;;;11.30;;